Time;durP1;ratioP1;P1;durP2;ratioP2;P2;SDS_P1;SDS_P2;PMS_P1;PMS_P2;Temp;Humidity;BMP_temperature;BMP_pressure;BME280_temperature;BME280_humidity;BME280_pressure;Samples;Min_cycle;Max_cycle;Signal;HPM_P1;HPM_P2
2022/09/29 00:00:42;;;;;;;1.45;0.50;;;6.00;99.90;;;;;;5059722;28;20083;-81
2022/09/29 00:03:08;;;;;;;0.88;0.50;;;6.00;99.90;;;;;;5027000;28;20052;-81
2022/09/29 00:05:35;;;;;;;0.60;0.57;;;5.90;99.90;;;;;;5046250;28;20048;-81
2022/09/29 00:08:02;;;;;;;1.23;0.50;;;5.90;99.90;;;;;;5059761;28;20055;-81
2022/09/29 00:10:29;;;;;;;0.60;0.50;;;5.90;99.90;;;;;;5043626;28;20055;-81
2022/09/29 00:12:56;;;;;;;0.73;0.60;;;5.90;99.90;;;;;;5063134;28;20556;-81
2022/09/29 00:15:23;;;;;;;0.77;0.52;;;5.80;99.90;;;;;;5025490;28;20045;-80
2022/09/29 00:17:49;;;;;;;1.17;0.70;;;5.80;99.90;;;;;;5056073;28;20053;-80
2022/09/29 00:20:36;;;;;;;1.23;0.73;;;5.80;99.90;;;;;;5028389;28;20053;-81
2022/09/29 00:23:03;;;;;;;0.93;0.68;;;5.80;99.90;;;;;;5059885;28;20053;-80
2022/09/29 00:25:30;;;;;;;1.08;0.70;;;5.80;99.90;;;;;;5065764;28;20048;-81
2022/09/29 00:27:57;;;;;;;1.67;1.02;;;5.70;99.90;;;;;;5055470;28;20052;-79
2022/09/29 00:30:24;;;;;;;0.98;0.60;;;5.60;99.90;;;;;;5059725;28;20049;-81
2022/09/29 00:32:51;;;;;;;0.82;0.70;;;5.60;99.90;;;;;;5026146;28;20051;-80
2022/09/29 00:35:18;;;;;;;1.17;0.75;;;5.60;99.90;;;;;;5040481;28;20045;-81
2022/09/29 00:37:45;;;;;;;1.02;0.60;;;5.60;99.90;;;;;;5041876;28;20063;-81
2022/09/29 00:40:11;;;;;;;0.77;0.55;;;5.60;99.90;;;;;;5059281;28;20049;-80
2022/09/29 00:42:39;;;;;;;0.85;0.70;;;5.50;99.90;;;;;;5062583;28;20053;-80
2022/09/29 00:45:20;;;;;;;0.60;0.50;;;5.50;99.90;;;;;;5041049;28;20055;-80
2022/09/29 00:48:11;;;;;;;0.85;0.52;;;5.50;99.90;;;;;;5052886;28;20079;-80
2022/09/29 00:50:47;;;;;;;0.45;0.40;;;5.50;99.90;;;;;;5024068;28;20041;-80
2022/09/29 00:53:14;;;;;;;0.50;0.50;;;5.50;99.90;;;;;;5053314;28;20656;-80
2022/09/29 00:56:08;;;;;;;0.95;0.77;;;5.50;99.90;;;;;;5065323;28;20104;-80
2022/09/29 00:58:36;;;;;;;0.60;0.60;;;5.50;99.90;;;;;;5062902;28;20056;-80
2022/09/29 01:01:03;;;;;;;0.52;0.40;;;5.50;99.90;;;;;;5065357;28;20052;-81
2022/09/29 01:03:33;;;;;;;1.10;0.77;;;5.50;99.90;;;;;;5077503;28;20044;-80
2022/09/29 01:06:09;;;;;;;1.02;0.93;;;5.50;99.90;;;;;;5067300;28;20048;-81
2022/09/29 01:08:50;;;;;;;0.65;0.45;;;5.50;99.90;;;;;;5082948;28;20967;-80
2022/09/29 01:11:19;;;;;;;0.57;0.50;;;5.40;99.90;;;;;;5068944;28;20054;-81
2022/09/29 01:13:45;;;;;;;0.63;0.50;;;5.40;99.90;;;;;;5084142;28;20101;-81
2022/09/29 01:16:12;;;;;;;0.90;0.60;;;5.40;99.90;;;;;;5070355;28;20072;-81
2022/09/29 01:18:39;;;;;;;0.90;0.52;;;5.40;99.90;;;;;;5034168;28;20045;-80
2022/09/29 01:21:31;;;;;;;0.80;0.77;;;5.40;99.90;;;;;;5013927;28;20129;-80
2022/09/29 01:24:19;;;;;;;0.65;0.50;;;5.40;99.90;;;;;;5069977;28;20064;-81
2022/09/29 01:27:23;;;;;;;1.10;0.70;;;5.30;99.90;;;;;;5068515;28;20051;-81
2022/09/29 01:30:14;;;;;;;0.50;0.50;;;5.30;99.90;;;;;;5049757;28;20044;-80
2022/09/29 01:32:51;;;;;;;0.65;0.52;;;5.30;99.90;;;;;;5054165;28;20055;-81
2022/09/29 01:35:25;;;;;;;0.93;0.70;;;5.30;99.90;;;;;;5044440;28;20116;-81
2022/09/29 01:38:10;;;;;;;0.77;0.60;;;5.20;99.90;;;;;;5028609;28;20059;-81
2022/09/29 01:41:13;;;;;;;0.40;0.40;;;5.20;99.90;;;;;;5048203;28;20055;-80
2022/09/29 01:44:19;;;;;;;0.90;0.60;;;5.20;99.90;;;;;;5065789;28;20079;-81
2022/09/29 01:46:57;;;;;;;0.70;0.40;;;5.20;99.90;;;;;;5047721;28;20040;-81
2022/09/29 01:49:26;;;;;;;1.13;0.70;;;5.20;99.90;;;;;;5030445;28;20064;-81
2022/09/29 01:52:07;;;;;;;0.73;0.55;;;5.10;99.90;;;;;;5029807;28;20045;-81
2022/09/29 01:54:50;;;;;;;0.40;0.40;;;5.10;99.90;;;;;;5046593;28;20132;-81
2022/09/29 01:57:20;;;;;;;0.70;0.60;;;5.10;99.90;;;;;;5046614;28;20135;-81
2022/09/29 01:59:56;;;;;;;0.50;0.50;;;5.10;99.90;;;;;;5030230;28;20045;-81
2022/09/29 02:02:31;;;;;;;1.17;0.60;;;5.00;99.90;;;;;;5051986;28;20831;-81
2022/09/29 02:05:00;;;;;;;0.88;0.57;;;5.10;99.90;;;;;;5030097;28;20131;-81
2022/09/29 02:07:52;;;;;;;1.33;0.52;;;5.00;99.90;;;;;;5029413;28;20053;-81
2022/09/29 02:10:32;;;;;;;1.15;0.60;;;5.00;99.90;;;;;;5032481;28;20045;-79
2022/09/29 02:12:59;;;;;;;0.50;0.50;;;5.00;99.90;;;;;;5046406;28;20048;-79
2022/09/29 02:15:29;;;;;;;1.17;0.70;;;5.00;99.90;;;;;;5069270;28;20056;-79
2022/09/29 02:17:58;;;;;;;0.50;0.50;;;4.90;99.90;;;;;;5075621;28;20045;-79
2022/09/29 02:20:25;;;;;;;0.93;0.50;;;4.90;99.90;;;;;;5032939;28;20056;-80
2022/09/29 02:22:52;;;;;;;0.88;0.60;;;4.80;99.90;;;;;;5055407;28;20059;-80
2022/09/29 02:25:18;;;;;;;0.75;0.60;;;4.80;99.90;;;;;;5051849;28;20158;-80
2022/09/29 02:27:46;;;;;;;0.60;0.40;;;4.80;99.90;;;;;;5052143;28;20044;-80
2022/09/29 02:30:14;;;;;;;0.57;0.50;;;4.80;99.90;;;;;;5013004;28;20049;-79
2022/09/29 02:32:41;;;;;;;0.52;0.40;;;4.80;99.90;;;;;;5056468;28;20072;-80
2022/09/29 02:35:08;;;;;;;1.10;0.60;;;4.70;99.90;;;;;;5052195;28;20048;-81
2022/09/29 02:37:53;;;;;;;0.47;0.47;;;4.70;99.90;;;;;;5068388;28;20090;-80
2022/09/29 02:40:35;;;;;;;0.30;0.30;;;4.70;99.90;;;;;;5068793;28;20052;-79
2022/09/29 02:43:40;;;;;;;0.38;0.38;;;4.70;99.90;;;;;;5082676;28;20590;-79
2022/09/29 02:46:18;;;;;;;0.40;0.40;;;4.60;99.90;;;;;;5047771;28;20045;-79
2022/09/29 02:49:07;;;;;;;0.70;0.50;;;4.60;99.90;;;;;;5044331;28;20132;-80
2022/09/29 02:51:57;;;;;;;0.95;0.68;;;4.60;99.90;;;;;;5044859;28;20665;-80
2022/09/29 02:54:24;;;;;;;0.38;0.38;;;4.60;99.90;;;;;;5066093;28;20380;-79
2022/09/29 02:57:06;;;;;;;0.60;0.50;;;4.60;99.90;;;;;;5086695;28;20048;-80
2022/09/29 02:59:54;;;;;;;0.63;0.50;;;4.60;99.90;;;;;;5086057;28;20599;-80
2022/09/29 03:02:26;;;;;;;0.47;0.40;;;4.60;99.90;;;;;;5084681;28;20040;-79
2022/09/29 03:04:53;;;;;;;1.00;0.68;;;4.60;99.90;;;;;;5049266;28;20648;-79
2022/09/29 03:07:20;;;;;;;0.80;0.50;;;4.60;99.90;;;;;;5032072;28;20051;-80
2022/09/29 03:09:47;;;;;;;0.45;0.45;;;4.60;99.90;;;;;;5031264;28;20044;-79
2022/09/29 03:12:14;;;;;;;0.55;0.47;;;4.60;99.90;;;;;;5065224;28;20544;-79
2022/09/29 03:14:41;;;;;;;0.52;0.52;;;4.50;99.90;;;;;;5051720;28;20059;-80
2022/09/29 03:17:08;;;;;;;0.40;0.35;;;4.50;99.90;;;;;;5063916;28;20049;-80
2022/09/29 03:19:34;;;;;;;0.57;0.50;;;4.50;99.90;;;;;;5063699;28;20392;-80
2022/09/29 03:22:02;;;;;;;0.60;0.50;;;4.50;99.90;;;;;;5031717;28;20048;-80
2022/09/29 03:24:30;;;;;;;0.75;0.55;;;4.40;99.90;;;;;;5083787;28;20055;-80
2022/09/29 03:26:57;;;;;;;0.35;0.30;;;4.50;99.90;;;;;;5068366;28;20109;-80
2022/09/29 03:29:23;;;;;;;0.40;0.40;;;4.40;99.90;;;;;;5067909;28;20044;-80
2022/09/29 03:31:50;;;;;;;0.73;0.50;;;4.50;99.90;;;;;;5072918;28;20159;-79
2022/09/29 03:34:17;;;;;;;0.93;0.70;;;4.40;99.90;;;;;;5051375;28;20055;-80
2022/09/29 03:36:44;;;;;;;1.13;0.60;;;4.40;99.90;;;;;;5085397;28;20048;-81
2022/09/29 03:39:10;;;;;;;0.75;0.45;;;4.40;99.90;;;;;;5051416;28;20044;-80
2022/09/29 03:41:38;;;;;;;0.40;0.40;;;4.50;99.90;;;;;;5068231;28;20128;-79
2022/09/29 03:44:05;;;;;;;0.60;0.60;;;4.50;99.90;;;;;;5084573;28;20043;-79
2022/09/29 03:46:32;;;;;;;1.05;0.60;;;4.50;99.90;;;;;;5067639;28;20061;-79
2022/09/29 03:48:59;;;;;;;0.60;0.50;;;4.50;99.90;;;;;;5047464;28;20045;-79
2022/09/29 03:51:25;;;;;;;0.73;0.60;;;4.50;99.90;;;;;;5031010;28;20052;-79
2022/09/29 03:53:53;;;;;;;0.63;0.40;;;4.50;99.90;;;;;;5061174;28;20052;-80
2022/09/29 03:56:20;;;;;;;0.40;0.40;;;4.50;99.90;;;;;;5046656;28;20049;-79
2022/09/29 03:58:46;;;;;;;0.80;0.50;;;4.40;99.90;;;;;;5046067;28;20428;-80
2022/09/29 04:01:15;;;;;;;0.93;0.43;;;4.40;99.90;;;;;;5028318;28;20358;-80
2022/09/29 04:03:42;;;;;;;0.63;0.55;;;4.40;99.90;;;;;;5051305;28;20076;-79
2022/09/29 04:06:09;;;;;;;0.60;0.50;;;4.40;99.90;;;;;;5084583;28;20059;-79
2022/09/29 04:08:36;;;;;;;0.88;0.60;;;4.40;99.90;;;;;;5049750;28;20049;-79
2022/09/29 04:11:03;;;;;;;0.30;0.30;;;4.40;99.90;;;;;;5032030;28;20059;-79
2022/09/29 04:13:31;;;;;;;0.75;0.70;;;4.40;99.90;;;;;;5057939;28;20127;-79
2022/09/29 04:15:59;;;;;;;0.70;0.55;;;4.30;99.90;;;;;;5068093;28;20059;-82
2022/09/29 04:18:26;;;;;;;0.85;0.40;;;4.40;99.90;;;;;;5067858;28;20053;-79
2022/09/29 04:20:53;;;;;;;0.80;0.68;;;4.40;99.90;;;;;;5063790;28;20492;-79
2022/09/29 04:23:20;;;;;;;0.68;0.52;;;4.30;99.90;;;;;;5054778;28;20056;-79
2022/09/29 04:25:46;;;;;;;0.65;0.45;;;4.30;99.90;;;;;;5067449;28;20055;-79
2022/09/29 04:28:13;;;;;;;1.13;0.70;;;4.30;99.90;;;;;;5085812;28;20544;-80
2022/09/29 04:30:40;;;;;;;0.40;0.40;;;4.20;99.90;;;;;;5068195;28;20048;-79
2022/09/29 04:33:07;;;;;;;0.73;0.57;;;4.20;99.90;;;;;;5087490;28;20052;-79
2022/09/29 04:35:34;;;;;;;0.73;0.70;;;4.20;99.90;;;;;;5040402;28;20053;-79
2022/09/29 04:38:02;;;;;;;0.77;0.50;;;4.30;99.90;;;;;;5051044;28;20682;-80
2022/09/29 04:40:29;;;;;;;0.70;0.50;;;4.30;99.90;;;;;;5030855;28;20075;-79
2022/09/29 04:42:56;;;;;;;0.50;0.50;;;4.40;99.90;;;;;;5057810;28;20109;-79
2022/09/29 04:45:23;;;;;;;0.70;0.40;;;4.40;99.90;;;;;;5071292;28;20047;-79
2022/09/29 04:47:49;;;;;;;0.95;0.57;;;4.50;99.90;;;;;;5040663;28;20596;-79
2022/09/29 04:50:16;;;;;;;0.70;0.57;;;4.60;99.90;;;;;;5030309;28;20045;-78
2022/09/29 04:52:43;;;;;;;0.45;0.35;;;4.70;99.90;;;;;;5069135;28;20051;-78
2022/09/29 04:55:10;;;;;;;0.60;0.50;;;4.80;99.90;;;;;;5067522;28;20074;-79
2022/09/29 04:57:38;;;;;;;0.75;0.60;;;4.80;99.90;;;;;;5052134;28;20490;-79
2022/09/29 05:00:06;;;;;;;1.30;0.63;;;4.90;99.90;;;;;;5051620;28;20555;-78
2022/09/29 05:02:34;;;;;;;0.95;0.70;;;4.90;99.90;;;;;;5050126;28;20052;-79
2022/09/29 05:05:01;;;;;;;0.77;0.60;;;5.00;99.90;;;;;;5027089;28;20044;-79
2022/09/29 05:07:27;;;;;;;0.82;0.65;;;5.10;99.90;;;;;;5023251;28;20048;-79
2022/09/29 05:09:54;;;;;;;0.52;0.50;;;5.10;99.90;;;;;;5040733;28;20045;-80
2022/09/29 05:12:21;;;;;;;0.50;0.30;;;5.20;99.90;;;;;;5048512;28;20055;-80
2022/09/29 05:14:48;;;;;;;0.90;0.70;;;5.20;99.90;;;;;;5026715;28;20053;-84
2022/09/29 05:17:14;;;;;;;0.60;0.32;;;5.30;99.90;;;;;;5043257;28;20037;-81
2022/09/29 05:19:41;;;;;;;1.05;0.65;;;5.40;99.90;;;;;;5058582;28;20041;-79
2022/09/29 05:22:08;;;;;;;0.55;0.50;;;5.40;99.90;;;;;;5060399;28;20170;-79
2022/09/29 05:24:35;;;;;;;0.82;0.50;;;5.50;99.90;;;;;;5046688;28;20048;-79
2022/09/29 05:27:02;;;;;;;1.10;0.70;;;5.60;99.90;;;;;;5059997;28;20044;-79
2022/09/29 05:29:28;;;;;;;0.73;0.68;;;5.70;99.90;;;;;;5044459;28;20389;-78
2022/09/29 05:31:55;;;;;;;0.52;0.40;;;5.70;99.90;;;;;;5040770;28;20041;-79
2022/09/29 05:34:22;;;;;;;0.65;0.57;;;5.80;99.90;;;;;;5058672;28;20045;-76
2022/09/29 05:36:49;;;;;;;0.60;0.30;;;5.80;99.90;;;;;;5035671;28;20045;-77
2022/09/29 05:39:16;;;;;;;0.63;0.50;;;5.80;99.90;;;;;;5053977;28;20082;-77
2022/09/29 05:41:43;;;;;;;0.60;0.50;;;5.90;99.90;;;;;;5028242;28;20048;-77
2022/09/29 05:44:10;;;;;;;0.80;0.70;;;5.90;99.90;;;;;;5050246;28;20052;-76
2022/09/29 05:46:36;;;;;;;0.98;0.50;;;6.00;99.90;;;;;;5036738;28;20465;-76
2022/09/29 05:49:03;;;;;;;0.75;0.50;;;6.00;99.90;;;;;;5046170;28;20109;-76
2022/09/29 05:51:30;;;;;;;0.40;0.40;;;6.00;99.90;;;;;;5051300;28;20434;-76
2022/09/29 05:53:57;;;;;;;0.85;0.63;;;6.10;99.90;;;;;;5058867;28;20060;-78
2022/09/29 05:56:24;;;;;;;0.80;0.57;;;6.20;99.90;;;;;;5049365;28;20052;-76
2022/09/29 05:58:51;;;;;;;0.50;0.50;;;6.20;99.90;;;;;;5034890;28;20419;-77
2022/09/29 06:01:23;;;;;;;0.73;0.57;;;6.20;99.90;;;;;;5029596;28;20492;-76
2022/09/29 06:03:51;;;;;;;0.73;0.70;;;6.30;99.90;;;;;;5053505;28;20048;-77
2022/09/29 06:06:19;;;;;;;0.45;0.43;;;6.30;99.90;;;;;;5019867;28;20049;-76
2022/09/29 06:08:46;;;;;;;0.70;0.50;;;6.40;99.90;;;;;;5042356;28;20067;-76
2022/09/29 06:11:18;;;;;;;1.02;0.70;;;6.40;99.90;;;;;;5054281;28;20536;-76
2022/09/29 06:13:46;;;;;;;0.80;0.52;;;6.50;99.90;;;;;;5064738;28;20058;-76
2022/09/29 06:16:14;;;;;;;0.85;0.60;;;6.50;99.90;;;;;;5052502;28;20045;-75
2022/09/29 06:18:40;;;;;;;1.10;0.60;;;6.50;99.90;;;;;;5057075;28;20594;-75
2022/09/29 06:21:10;;;;;;;0.65;0.55;;;6.60;99.90;;;;;;5025768;28;20045;-76
2022/09/29 06:23:37;;;;;;;0.40;0.40;;;6.60;99.90;;;;;;5060461;28;20060;-78
2022/09/29 06:26:06;;;;;;;0.82;0.50;;;6.70;99.90;;;;;;5074113;28;20519;-75
2022/09/29 06:28:32;;;;;;;1.08;0.70;;;6.80;99.90;;;;;;5045173;28;20511;-75
2022/09/29 06:31:08;;;;;;;0.30;0.30;;;6.90;99.90;;;;;;5082213;28;20076;-75
2022/09/29 06:33:35;;;;;;;0.50;0.40;;;7.00;99.90;;;;;;5045741;28;20063;-75
2022/09/29 06:38:52;;;;;;;1.10;0.50;;;7.10;99.90;;;;;;5051111;28;20210;-76
2022/09/29 06:41:19;;;;;;;0.52;0.43;;;7.20;99.90;;;;;;5034928;28;20048;-76
2022/09/29 06:43:46;;;;;;;0.40;0.40;;;7.20;99.90;;;;;;5058952;28;20099;-76
2022/09/29 06:46:13;;;;;;;0.75;0.45;;;7.30;99.90;;;;;;5068639;28;20051;-76
2022/09/29 06:48:40;;;;;;;0.43;0.40;;;7.40;99.90;;;;;;5029616;28;20160;-78
2022/09/29 06:51:07;;;;;;;0.40;0.40;;;7.50;99.90;;;;;;5033087;28;20448;-78
2022/09/29 06:53:36;;;;;;;0.35;0.35;;;7.60;99.90;;;;;;5054018;28;20048;-77
2022/09/29 06:56:05;;;;;;;0.30;0.30;;;7.60;99.90;;;;;;5086176;28;20048;-78
2022/09/29 06:58:32;;;;;;;0.55;0.40;;;7.70;99.90;;;;;;5084824;28;20131;-77
2022/09/29 07:01:00;;;;;;;0.75;0.40;;;7.80;99.90;;;;;;5084473;28;20131;-78
2022/09/29 07:03:28;;;;;;;0.50;0.40;;;7.80;99.90;;;;;;5073466;28;20046;-78
2022/09/29 07:05:55;;;;;;;0.85;0.47;;;7.90;99.90;;;;;;5061972;28;20352;-77
2022/09/29 07:08:42;;;;;;;0.73;0.50;;;7.90;99.90;;;;;;5064628;28;20078;-76
2022/09/29 07:11:09;;;;;;;0.38;0.30;;;8.00;99.90;;;;;;5085850;28;20507;-77
2022/09/29 07:13:36;;;;;;;0.40;0.40;;;8.00;99.90;;;;;;5084397;28;20055;-77
2022/09/29 07:16:06;;;;;;;0.40;0.40;;;8.10;99.90;;;;;;5083537;28;20046;-77
2022/09/29 07:18:34;;;;;;;0.50;0.40;;;8.20;99.90;;;;;;5047002;28;20056;-77
2022/09/29 07:21:01;;;;;;;0.40;0.35;;;8.30;99.90;;;;;;5064453;28;20058;-77
2022/09/29 07:23:28;;;;;;;0.43;0.30;;;8.30;99.90;;;;;;5066403;28;20058;-77
2022/09/29 07:25:54;;;;;;;0.47;0.43;;;8.40;99.90;;;;;;5084550;28;20040;-77
2022/09/29 07:28:21;;;;;;;0.40;0.38;;;8.50;99.90;;;;;;5083880;28;20518;-77
2022/09/29 07:31:00;;;;;;;0.47;0.40;;;8.60;99.90;;;;;;5084245;28;20442;-77
2022/09/29 07:33:39;;;;;;;0.55;0.30;;;8.70;99.90;;;;;;5084448;28;20140;-77
2022/09/29 07:36:06;;;;;;;0.88;0.43;;;8.80;99.90;;;;;;5083933;28;20277;-76
2022/09/29 07:38:33;;;;;;;0.40;0.40;;;8.90;99.90;;;;;;5083396;28;20048;-76
2022/09/29 07:41:11;;;;;;;0.60;0.40;;;9.00;99.90;;;;;;5067408;28;20491;-76
2022/09/29 07:43:38;;;;;;;0.35;0.35;;;9.10;99.90;;;;;;5083542;28;20396;-77
2022/09/29 07:46:05;;;;;;;0.47;0.40;;;9.30;99.90;;;;;;5067625;28;20048;-77
2022/09/29 07:48:33;;;;;;;0.38;0.38;;;9.40;99.90;;;;;;5066339;28;20052;-77
2022/09/29 07:51:15;;;;;;;0.38;0.30;;;9.50;99.90;;;;;;5066202;28;20427;-77
2022/09/29 07:53:42;;;;;;;0.52;0.47;;;9.70;99.90;;;;;;5079301;28;20368;-77
2022/09/29 07:56:19;;;;;;;0.43;0.32;;;9.70;99.90;;;;;;5048426;28;20143;-77
2022/09/29 07:58:47;;;;;;;0.38;0.35;;;9.80;99.90;;;;;;5067240;28;20044;-77
2022/09/29 08:01:14;;;;;;;0.30;0.30;;;9.90;99.90;;;;;;5051355;28;20074;-78
2022/09/29 08:03:43;;;;;;;0.75;0.50;;;9.80;99.90;;;;;;5066333;28;20056;-78
2022/09/29 08:06:10;;;;;;;0.50;0.50;;;9.90;99.90;;;;;;5070446;28;20451;-77
2022/09/29 08:08:40;;;;;;;0.45;0.38;;;9.90;99.90;;;;;;5053978;28;20131;-77
2022/09/29 08:11:15;;;;;;;1.23;0.52;;;9.90;99.90;;;;;;5072137;28;20099;-76
2022/09/29 08:13:56;;;;;;;0.60;0.50;;;9.90;99.90;;;;;;5072779;28;20044;-77
2022/09/29 08:16:22;;;;;;;0.52;0.40;;;9.90;99.90;;;;;;5069059;28;20044;-77
2022/09/29 08:18:49;;;;;;;0.65;0.40;;;9.90;99.90;;;;;;5050627;28;20146;-76
2022/09/29 08:21:16;;;;;;;0.80;0.50;;;9.80;99.90;;;;;;5085575;28;20052;-77
2022/09/29 08:23:43;;;;;;;0.52;0.50;;;9.80;99.90;;;;;;5065687;28;20087;-77
2022/09/29 08:26:12;;;;;;;0.73;0.60;;;9.80;99.90;;;;;;5087603;28;20068;-76
2022/09/29 08:28:39;;;;;;;0.38;0.38;;;9.80;99.90;;;;;;5087807;28;20048;-76
2022/09/29 08:31:10;;;;;;;0.80;0.75;;;9.80;99.90;;;;;;5071564;28;20055;-76
2022/09/29 08:33:37;;;;;;;0.50;0.50;;;9.80;99.90;;;;;;5053794;28;20048;-76
2022/09/29 08:36:13;;;;;;;0.45;0.45;;;9.80;99.90;;;;;;5038779;28;20045;-76
2022/09/29 08:38:50;;;;;;;0.60;0.60;;;9.80;99.90;;;;;;5046448;28;20136;-76
2022/09/29 08:41:44;;;;;;;0.75;0.60;;;9.90;99.90;;;;;;5038243;28;20045;-76
2022/09/29 08:44:33;;;;;;;0.98;0.57;;;9.90;99.90;;;;;;5057592;28;20234;-76
2022/09/29 08:47:16;;;;;;;0.75;0.43;;;10.00;99.90;;;;;;5051297;28;20435;-75
2022/09/29 08:49:54;;;;;;;0.80;0.60;;;10.00;99.90;;;;;;5063204;28;20135;-76
2022/09/29 08:52:26;;;;;;;0.57;0.50;;;10.10;99.90;;;;;;5051042;28;20277;-76
2022/09/29 08:55:15;;;;;;;0.50;0.50;;;10.10;99.90;;;;;;5053723;28;20059;-76
2022/09/29 08:57:49;;;;;;;0.45;0.45;;;10.20;99.90;;;;;;5081754;28;20214;-76
2022/09/29 09:00:17;;;;;;;0.90;0.70;;;10.30;99.90;;;;;;5063126;28;20298;-76
2022/09/29 09:03:03;;;;;;;1.90;1.35;;;10.40;99.90;;;;;;5086141;28;20040;-76
2022/09/29 09:05:50;;;;;;;2.08;1.27;;;10.50;99.90;;;;;;5088662;28;20071;-76
2022/09/29 09:08:35;;;;;;;1.48;1.10;;;10.60;99.90;;;;;;5053055;28;20083;-76
2022/09/29 09:11:41;;;;;;;1.73;1.25;;;10.70;99.90;;;;;;5086787;28;20083;-76
2022/09/29 09:14:43;;;;;;;1.17;1.02;;;10.80;99.90;;;;;;5070606;28;20059;-76
2022/09/29 09:17:14;;;;;;;1.30;1.00;;;11.00;99.90;;;;;;5074060;28;20058;-76
2022/09/29 09:20:19;;;;;;;1.30;1.00;;;11.10;99.90;;;;;;5085165;28;20052;-76
2022/09/29 09:22:59;;;;;;;1.52;0.90;;;11.20;99.90;;;;;;5082796;28;20048;-76
2022/09/29 09:25:38;;;;;;;1.20;0.95;;;11.30;99.90;;;;;;5050135;28;20044;-76
2022/09/29 09:28:34;;;;;;;0.85;0.70;;;11.40;99.90;;;;;;5050518;28;20051;-76
2022/09/29 09:31:20;;;;;;;1.77;0.90;;;11.50;99.90;;;;;;5072250;28;20071;-76
2022/09/29 09:33:56;;;;;;;1.55;1.05;;;11.60;99.90;;;;;;5081216;28;20048;-76
2022/09/29 09:37:00;;;;;;;0.60;0.60;;;11.60;99.90;;;;;;5056243;28;20059;-76
2022/09/29 09:39:53;;;;;;;1.23;0.80;;;11.70;99.90;;;;;;5085868;28;20060;-76
2022/09/29 09:42:22;;;;;;;1.67;1.00;;;11.80;99.90;;;;;;5071552;28;20071;-76
2022/09/29 09:44:56;;;;;;;1.17;0.80;;;12.00;99.90;;;;;;5053193;28;20052;-77
2022/09/29 09:47:30;;;;;;;1.27;0.90;;;12.00;99.90;;;;;;5053207;28;20234;-76
2022/09/29 09:50:00;;;;;;;1.02;0.80;;;12.20;99.90;;;;;;5068438;28;20135;-76
2022/09/29 09:52:46;;;;;;;0.80;0.80;;;12.30;99.90;;;;;;5061882;28;20044;-76
2022/09/29 09:55:15;;;;;;;1.25;1.00;;;12.40;99.90;;;;;;5030241;28;20048;-76
2022/09/29 09:57:45;;;;;;;2.38;1.20;;;12.40;99.90;;;;;;5047433;28;20045;-76
2022/09/29 10:00:24;;;;;;;1.15;0.82;;;12.50;99.90;;;;;;5059673;28;20055;-76
2022/09/29 10:02:53;;;;;;;1.02;0.90;;;12.70;99.90;;;;;;5084339;28;20044;-76
2022/09/29 10:05:25;;;;;;;1.15;1.02;;;12.90;99.90;;;;;;5052555;28;20339;-76
2022/09/29 10:07:52;;;;;;;2.40;1.20;;;13.10;99.90;;;;;;5069055;28;20051;-76
2022/09/29 10:10:21;;;;;;;1.35;1.02;;;13.20;99.90;;;;;;5084975;28;20071;-77
2022/09/29 10:13:09;;;;;;;1.63;1.27;;;13.30;99.90;;;;;;5052024;28;20067;-76
2022/09/29 10:15:52;;;;;;;2.10;1.77;;;13.40;99.90;;;;;;5068967;28;20051;-77
2022/09/29 10:18:24;;;;;;;;;;;13.40;99.90;;;;;;5085214;28;20048;-76
2022/09/29 10:20:51;;;;;;;0.93;0.75;;;13.40;99.90;;;;;;5068472;28;20330;-76
2022/09/29 10:23:37;;;;;;;1.20;1.05;;;13.60;99.90;;;;;;5066613;28;20066;-77
2022/09/29 10:26:16;;;;;;;0.85;0.80;;;13.90;99.90;;;;;;5082222;28;20063;-76
2022/09/29 10:28:49;;;;;;;1.30;0.90;;;14.20;99.90;;;;;;5063729;28;20052;-77
2022/09/29 10:31:19;;;;;;;1.90;1.38;;;14.50;99.90;;;;;;5066296;28;20086;-76
2022/09/29 10:33:54;;;;;;;1.40;1.23;;;14.60;99.90;;;;;;5050454;28;20347;-77
2022/09/29 10:36:22;;;;;;;0.95;0.75;;;14.60;99.90;;;;;;5045976;28;20067;-76
2022/09/29 10:38:50;;;;;;;1.33;1.02;;;14.50;99.90;;;;;;5024934;28;20062;-75
2022/09/29 10:41:18;;;;;;;1.67;1.13;;;14.50;99.90;;;;;;5060869;28;20147;-74
2022/09/29 10:43:47;;;;;;;1.45;1.00;;;14.50;99.90;;;;;;5045583;28;20986;-76
2022/09/29 10:46:36;;;;;;;1.63;1.30;;;14.50;99.90;;;;;;5045056;28;20138;-75
2022/09/29 10:49:27;;;;;;;1.55;1.17;;;14.30;99.90;;;;;;5040993;28;20419;-74
2022/09/29 10:52:02;;;;;;;2.30;0.90;;;14.30;99.90;;;;;;5063246;28;20044;-75
2022/09/29 10:54:34;;;;;;;1.48;1.00;;;14.50;99.90;;;;;;5060302;28;20487;-75
2022/09/29 10:57:11;;;;;;;0.75;0.70;;;14.60;99.90;;;;;;5061500;28;20095;-74
2022/09/29 10:59:45;;;;;;;0.63;0.60;;;14.80;99.90;;;;;;5060899;28;20054;-75
2022/09/29 11:02:36;;;;;;;0.50;0.50;;;15.00;99.90;;;;;;5060541;28;20079;-74
2022/09/29 11:05:14;;;;;;;1.00;0.80;;;15.20;99.90;;;;;;5039979;28;20590;-75
2022/09/29 11:07:44;;;;;;;0.77;0.70;;;15.30;99.90;;;;;;5037634;28;20783;-75
2022/09/29 11:10:35;;;;;;;0.90;0.80;;;15.50;99.90;;;;;;5024026;28;20059;-74
2022/09/29 11:13:20;;;;;;;2.38;1.10;;;15.50;99.90;;;;;;5030040;28;20828;-74
2022/09/29 11:15:47;;;;;;;1.30;1.00;;;15.70;99.90;;;;;;5039182;28;20609;-74
2022/09/29 11:18:26;;;;;;;1.40;1.00;;;16.00;99.90;;;;;;5036578;28;20049;-74
2022/09/29 11:21:22;;;;;;;1.15;0.88;;;16.20;99.90;;;;;;5036022;28;20045;-74
2022/09/29 11:24:05;;;;;;;1.35;0.90;;;16.50;99.90;;;;;;5039673;28;20049;-75
2022/09/29 11:26:40;;;;;;;1.30;1.10;;;16.60;99.90;;;;;;5040717;28;20079;-74
2022/09/29 11:29:37;;;;;;;1.75;1.10;;;16.30;99.90;;;;;;5057559;28;20049;-74
2022/09/29 11:32:41;;;;;;;2.03;1.58;;;16.10;99.90;;;;;;5061262;28;20131;-74
2022/09/29 11:35:42;;;;;;;1.23;1.00;;;15.70;99.90;;;;;;5076607;28;20113;-74
2022/09/29 11:38:15;;;;;;;1.02;0.68;;;15.60;99.90;;;;;;5057642;28;20557;-74
2022/09/29 11:41:09;;;;;;;1.20;0.98;;;15.60;99.90;;;;;;5078351;28;20063;-74
2022/09/29 11:43:55;;;;;;;1.33;1.23;;;15.40;99.90;;;;;;5077933;28;20184;-74
2022/09/29 11:46:44;;;;;;;0.70;0.70;;;15.80;99.90;;;;;;5061602;28;20067;-74
2022/09/29 11:49:17;;;;;;;0.63;0.60;;;16.60;99.90;;;;;;5077284;28;20205;-73
2022/09/29 11:51:55;;;;;;;0.50;0.47;;;17.20;99.90;;;;;;5077959;28;20076;-74
2022/09/29 11:54:50;;;;;;;0.50;0.50;;;17.30;99.90;;;;;;5075956;28;20131;-73
2022/09/29 11:57:37;;;;;;;0.38;0.38;;;17.70;99.90;;;;;;5078229;28;20071;-73
2022/09/29 12:00:17;;;;;;;0.63;0.30;;;17.90;99.90;;;;;;5065329;28;20048;-73
2022/09/29 12:02:56;;;;;;;0.45;0.40;;;17.90;99.90;;;;;;5062332;28;20071;-74
2022/09/29 12:05:32;;;;;;;0.75;0.50;;;17.70;99.90;;;;;;5080854;28;20090;-74
2022/09/29 12:08:18;;;;;;;0.30;0.30;;;17.60;99.90;;;;;;5079575;28;20056;-74
2022/09/29 12:11:06;;;;;;;0.20;0.20;;;17.40;99.90;;;;;;5066815;28;20113;-73
2022/09/29 12:14:10;;;;;;;0.20;0.20;;;17.40;99.90;;;;;;5071994;28;20067;-74
2022/09/29 12:16:38;;;;;;;0.30;0.30;;;17.50;99.90;;;;;;5079785;28;20510;-73
2022/09/29 12:19:15;;;;;;;0.77;0.60;;;17.80;99.90;;;;;;5062710;28;20059;-76
2022/09/29 12:21:43;;;;;;;0.55;0.55;;;18.50;99.90;;;;;;5033811;28;20504;-74
2022/09/29 12:24:15;;;;;;;0.50;0.50;;;19.10;99.90;;;;;;5068819;28;20059;-74
2022/09/29 12:26:43;;;;;;;0.55;0.50;;;19.70;99.90;;;;;;5053012;28;20098;-74
2022/09/29 12:29:35;;;;;;;1.05;0.50;;;20.40;99.90;;;;;;5019126;28;20068;-75
2022/09/29 12:32:34;;;;;;;0.40;0.40;;;20.60;98.80;;;;;;5040721;28;20669;-74
2022/09/29 12:35:05;;;;;;;0.50;0.40;;;20.10;99.40;;;;;;5044245;28;20161;-74
2022/09/29 12:37:46;;;;;;;1.08;0.40;;;19.80;99.60;;;;;;5038933;28;20063;-74
2022/09/29 12:40:21;;;;;;;0.43;0.30;;;19.40;99.70;;;;;;5027239;28;20049;-73
2022/09/29 12:42:57;;;;;;;0.73;0.40;;;18.90;99.80;;;;;;5046543;28;20054;-74
2022/09/29 12:45:47;;;;;;;0.30;0.30;;;18.50;99.70;;;;;;5056816;28;20492;-74
2022/09/29 12:48:50;;;;;;;0.50;0.30;;;18.00;99.90;;;;;;5051395;28;20060;-74
2022/09/29 12:51:39;;;;;;;0.20;0.20;;;17.60;99.90;;;;;;5072684;28;20736;-74
2022/09/29 12:54:23;;;;;;;0.40;0.40;;;17.30;99.90;;;;;;5061191;28;20579;-74
2022/09/29 12:56:53;;;;;;;0.30;0.30;;;17.10;99.90;;;;;;5050917;28;20094;-74
2022/09/29 12:59:22;;;;;;;0.22;0.20;;;17.00;99.90;;;;;;5044676;28;20130;-74
2022/09/29 13:01:51;;;;;;;0.30;0.30;;;17.00;99.90;;;;;;5053568;28;20183;-74
2022/09/29 13:04:49;;;;;;;0.30;0.30;;;17.50;99.90;;;;;;5038505;28;20534;-74
2022/09/29 13:07:25;;;;;;;0.22;0.22;;;18.30;99.90;;;;;;5042841;28;20471;-74
2022/09/29 13:10:26;;;;;;;0.38;0.38;;;19.30;98.70;;;;;;5051913;28;20515;-74
2022/09/29 13:13:14;;;;;;;0.50;0.50;;;20.30;96.90;;;;;;5084541;28;20055;-74
2022/09/29 13:16:09;;;;;;;0.30;0.30;;;21.00;95.90;;;;;;5084275;28;20127;-74
2022/09/29 13:18:55;;;;;;;0.30;0.30;;;21.60;95.60;;;;;;5073259;28;20109;-75
2022/09/29 13:21:44;;;;;;;0.20;0.20;;;22.40;94.50;;;;;;5033648;28;20445;-74
2022/09/29 13:24:27;;;;;;;0.50;0.40;;;23.10;93.30;;;;;;5055815;28;20135;-75
2022/09/29 13:27:06;;;;;;;0.40;0.40;;;23.70;92.50;;;;;;5059101;28;20073;-74
2022/09/29 13:29:42;;;;;;;0.63;0.20;;;23.50;92.20;;;;;;5059365;28;20055;-74
2022/09/29 13:32:09;;;;;;;0.32;0.22;;;23.20;91.90;;;;;;5047974;28;20444;-74